Time;durP1;ratioP1;P1;durP2;ratioP2;P2;SDS_P1;SDS_P2;PMS_P1;PMS_P2;Temp;Humidity;BMP_temperature;BMP_pressure;BME280_temperature;BME280_humidity;BME280_pressure;Samples;Min_cycle;Max_cycle;Signal;HPM_P1;HPM_P2
2021/09/28 04:02:02;;;;;;;17.38;11.32;;;13.40;99.90;;;;;;5222347;23;20367;-71
2021/09/28 04:04:29;;;;;;;16.43;11.00;;;13.30;99.90;;;;;;4922565;29;20262;-71
2021/09/28 04:06:55;;;;;;;19.13;11.35;;;13.30;99.90;;;;;;4915063;29;20514;-71
2021/09/28 04:09:22;;;;;;;27.30;10.73;;;13.30;99.90;;;;;;4915549;29;20234;-71
2021/09/28 04:11:49;;;;;;;25.37;12.97;;;13.30;99.90;;;;;;4915267;29;20803;-71
2021/09/28 04:14:16;;;;;;;23.10;12.70;;;13.30;99.90;;;;;;4915305;29;20478;-72
2021/09/28 04:16:43;;;;;;;23.75;12.80;;;13.30;99.90;;;;;;4914508;29;20472;-71
2021/09/28 04:19:11;;;;;;;20.43;11.17;;;13.30;99.90;;;;;;4915105;29;20214;-71
2021/09/28 04:21:39;;;;;;;17.87;11.00;;;13.30;99.90;;;;;;4912475;29;20896;-71
2021/09/28 04:24:07;;;;;;;17.13;10.57;;;13.30;99.90;;;;;;4915212;29;20467;-71
2021/09/28 04:26:33;;;;;;;19.07;11.60;;;13.30;99.90;;;;;;4918637;29;20834;-71
2021/09/28 04:29:00;;;;;;;18.10;12.63;;;13.20;99.90;;;;;;4918648;29;20594;-72
2021/09/28 04:31:27;;;;;;;23.33;12.95;;;13.20;99.90;;;;;;4918434;29;21002;-71
2021/09/28 04:33:54;;;;;;;18.73;11.32;;;13.20;99.90;;;;;;4917644;29;20663;-71
2021/09/28 04:36:22;;;;;;;15.43;11.07;;;13.20;99.90;;;;;;4918563;29;20630;-71
2021/09/28 04:38:49;;;;;;;18.98;12.32;;;13.20;99.90;;;;;;4918453;29;20470;-72
2021/09/28 04:41:15;;;;;;;17.50;11.05;;;13.20;99.90;;;;;;4918577;29;20266;-71
2021/09/28 04:43:42;;;;;;;20.08;10.90;;;13.10;99.90;;;;;;4918101;29;20287;-72
2021/09/28 04:46:09;;;;;;;19.07;12.70;;;13.10;99.90;;;;;;4918478;29;20265;-71
2021/09/28 04:48:35;;;;;;;21.67;12.30;;;13.10;99.90;;;;;;4917357;29;21007;-71
2021/09/28 04:51:02;;;;;;;14.95;9.90;;;13.10;99.90;;;;;;4918477;29;20847;-72
2021/09/28 04:53:30;;;;;;;20.10;13.50;;;13.10;99.90;;;;;;4917768;29;20286;-74
2021/09/28 04:55:57;;;;;;;22.58;11.35;;;13.00;99.90;;;;;;4918590;29;20617;-74
2021/09/28 04:58:24;;;;;;;15.40;10.38;;;13.00;99.90;;;;;;4918168;29;20379;-74
2021/09/28 05:00:51;;;;;;;17.10;11.83;;;13.00;99.90;;;;;;4917954;29;20238;-74
2021/09/28 05:03:18;;;;;;;17.90;10.70;;;13.00;99.90;;;;;;4916873;29;20478;-74
2021/09/28 05:05:45;;;;;;;14.85;10.95;;;12.90;99.90;;;;;;4918395;29;20286;-74
2021/09/28 05:08:12;;;;;;;19.47;11.30;;;12.90;99.90;;;;;;4918451;29;20214;-73
2021/09/28 05:10:40;;;;;;;15.25;11.02;;;12.90;99.90;;;;;;4918041;29;21022;-73
2021/09/28 05:13:06;;;;;;;20.27;10.95;;;12.90;99.90;;;;;;4915564;29;20282;-73
2021/09/28 05:15:33;;;;;;;19.48;11.27;;;12.80;99.90;;;;;;4917865;29;20270;-73
2021/09/28 05:18:00;;;;;;;20.67;12.85;;;12.80;99.90;;;;;;4917064;29;20210;-71
2021/09/28 05:20:27;;;;;;;26.15;11.63;;;12.80;99.90;;;;;;4918056;29;20230;-73
2021/09/28 05:22:53;;;;;;;22.20;10.88;;;12.80;99.90;;;;;;4917324;29;20285;-73
2021/09/28 05:25:20;;;;;;;20.08;11.55;;;12.80;99.90;;;;;;4917688;29;20270;-72
2021/09/28 05:27:48;;;;;;;18.33;11.00;;;12.80;99.90;;;;;;4917476;29;20259;-72
2021/09/28 05:30:15;;;;;;;18.85;11.60;;;12.80;99.90;;;;;;4917602;29;20261;-72
2021/09/28 05:32:41;;;;;;;16.17;10.70;;;12.70;99.90;;;;;;4916182;29;20222;-72
2021/09/28 05:35:08;;;;;;;16.98;10.43;;;12.70;99.90;;;;;;4915661;29;20222;-72
2021/09/28 05:37:35;;;;;;;13.43;10.43;;;12.70;99.90;;;;;;4917050;29;20211;-70
2021/09/28 05:40:02;;;;;;;20.60;11.15;;;12.70;99.90;;;;;;4917501;29;20202;-73
2021/09/28 05:42:29;;;;;;;14.35;10.13;;;12.70;99.90;;;;;;4916777;29;20234;-74
2021/09/28 05:44:57;;;;;;;18.80;10.90;;;12.70;99.90;;;;;;4917248;29;20214;-73
2021/09/28 05:47:23;;;;;;;15.43;10.90;;;12.70;99.90;;;;;;4916455;29;20210;-74
2021/09/28 05:49:51;;;;;;;13.25;11.25;;;12.70;99.90;;;;;;4917415;29;20227;-74
2021/09/28 05:52:18;;;;;;;16.48;10.23;;;12.70;99.90;;;;;;4917079;29;20244;-74
2021/09/28 05:54:48;;;;;;;21.23;12.18;;;12.70;99.90;;;;;;4917218;29;20265;-73
2021/09/28 05:57:15;;;;;;;19.05;11.40;;;12.70;99.90;;;;;;4915089;29;20609;-74
2021/09/28 05:59:42;;;;;;;19.63;10.52;;;12.70;99.90;;;;;;4917447;29;20294;-74
2021/09/28 06:02:10;;;;;;;17.80;10.48;;;12.80;99.90;;;;;;4915692;29;20235;-74
2021/09/28 06:04:38;;;;;;;20.63;10.68;;;12.80;99.90;;;;;;4917093;29;20242;-73
2021/09/28 06:07:05;;;;;;;13.95;9.95;;;12.90;99.90;;;;;;4916863;29;20247;-74
2021/09/28 06:09:35;;;;;;;13.15;10.25;;;12.90;99.90;;;;;;4916737;29;20297;-73
2021/09/28 06:12:03;;;;;;;12.57;9.20;;;12.90;99.90;;;;;;4916522;29;20380;-73
2021/09/28 06:14:30;;;;;;;15.87;10.30;;;13.00;99.90;;;;;;4917679;29;20542;-73
2021/09/28 06:16:57;;;;;;;13.43;9.23;;;13.00;99.90;;;;;;4915776;29;20478;-72
2021/09/28 06:19:26;;;;;;;18.73;9.98;;;13.10;99.90;;;;;;4917412;29;20245;-72
2021/09/28 06:21:52;;;;;;;12.80;9.10;;;13.10;99.90;;;;;;4916597;29;20234;-72
2021/09/28 06:24:19;;;;;;;9.65;8.57;;;13.20;99.90;;;;;;4916824;29;20466;-72
2021/09/28 06:26:47;;;;;;;15.80;7.78;;;13.20;99.90;;;;;;4916726;29;20637;-72
2021/09/28 06:29:14;;;;;;;10.80;7.72;;;13.30;99.90;;;;;;4916768;29;20226;-72
2021/09/28 06:31:41;;;;;;;8.97;7.27;;;13.40;99.90;;;;;;4915539;29;20293;-73
2021/09/28 06:34:09;;;;;;;9.60;6.83;;;13.40;99.90;;;;;;4916344;29;20896;-73
2021/09/28 06:36:37;;;;;;;8.10;6.57;;;13.40;99.90;;;;;;4916376;29;20608;-73
2021/09/28 06:39:04;;;;;;;15.17;7.17;;;13.40;99.90;;;;;;4916517;29;20569;-73
2021/09/28 06:41:31;;;;;;;8.80;7.43;;;13.40;99.90;;;;;;4916121;29;20963;-72
2021/09/28 06:43:59;;;;;;;7.63;6.37;;;13.40;99.90;;;;;;4915868;29;20494;-71
2021/09/28 06:46:26;;;;;;;7.30;6.03;;;13.40;99.90;;;;;;4916492;29;20470;-72
2021/09/28 06:48:53;;;;;;;9.13;6.63;;;13.40;99.90;;;;;;4914978;29;20596;-72
2021/09/28 06:51:19;;;;;;;12.13;6.40;;;13.40;99.90;;;;;;4916361;29;20644;-72
2021/09/28 06:53:49;;;;;;;7.90;6.40;;;13.40;99.90;;;;;;4916070;29;20545;-72
2021/09/28 06:56:18;;;;;;;9.70;6.07;;;13.50;99.90;;;;;;4916220;29;20218;-71
2021/09/28 06:58:45;;;;;;;9.63;6.60;;;13.50;99.90;;;;;;4916209;29;20477;-71
2021/09/28 07:01:11;;;;;;;8.07;6.60;;;13.60;99.90;;;;;;4915825;29;21072;-74
2021/09/28 07:03:38;;;;;;;6.40;5.80;;;13.60;99.90;;;;;;4914774;29;20470;-72
2021/09/28 07:06:05;;;;;;;15.13;5.83;;;13.70;99.90;;;;;;4916292;29;20534;-72
2021/09/28 07:08:32;;;;;;;5.90;5.40;;;13.80;99.90;;;;;;4915788;29;20646;-72
2021/09/28 07:11:01;;;;;;;6.03;5.37;;;13.80;99.90;;;;;;4916113;29;20495;-72
2021/09/28 07:13:28;;;;;;;5.30;4.50;;;13.90;99.90;;;;;;4915491;29;20470;-72
2021/09/28 07:15:54;;;;;;;7.63;5.40;;;13.90;99.90;;;;;;4915876;29;20545;-72
2021/09/28 07:18:21;;;;;;;5.60;5.10;;;14.00;99.90;;;;;;4914850;29;20466;-72
2021/09/28 07:20:48;;;;;;;6.80;4.27;;;14.00;99.90;;;;;;4915697;29;20497;-72
2021/09/28 07:23:14;;;;;;;4.63;4.23;;;14.00;99.90;;;;;;4915502;29;20490;-72
2021/09/28 07:25:41;;;;;;;4.00;3.70;;;14.10;99.90;;;;;;4915969;29;20471;-72
2021/09/28 07:28:09;;;;;;;6.87;3.73;;;14.10;99.90;;;;;;4915517;29;20964;-71
2021/09/28 07:30:36;;;;;;;3.77;3.40;;;14.10;99.90;;;;;;4915383;29;20494;-72
2021/09/28 07:33:03;;;;;;;4.13;3.73;;;14.10;99.90;;;;;;4914439;29;20482;-72
2021/09/28 07:35:30;;;;;;;4.03;3.73;;;14.10;99.90;;;;;;4915416;29;20470;-72
2021/09/28 07:37:57;;;;;;;3.80;3.60;;;14.10;99.90;;;;;;4915511;29;20873;-72
2021/09/28 07:40:24;;;;;;;4.47;3.23;;;14.10;99.90;;;;;;4915611;29;20526;-72
2021/09/28 07:42:51;;;;;;;3.37;3.20;;;14.10;99.90;;;;;;4915263;29;20819;-72
2021/09/28 07:45:19;;;;;;;3.20;2.93;;;14.20;99.90;;;;;;4915749;29;20534;-72
2021/09/28 07:47:46;;;;;;;3.03;2.73;;;14.30;99.90;;;;;;4914990;29;20521;-72
2021/09/28 07:50:13;;;;;;;2.60;2.40;;;14.30;99.90;;;;;;4916135;29;20874;-72
2021/09/28 07:52:40;;;;;;;3.00;2.70;;;14.40;99.90;;;;;;4915389;29;20553;-72
2021/09/28 07:55:08;;;;;;;3.47;2.77;;;14.50;99.90;;;;;;4915450;29;20480;-72
2021/09/28 07:57:34;;;;;;;3.10;2.40;;;14.50;99.90;;;;;;4915590;29;20501;-72
2021/09/28 08:00:01;;;;;;;2.20;2.07;;;14.60;99.90;;;;;;4918081;29;20462;-72
2021/09/28 08:02:30;;;;;;;4.30;2.67;;;14.70;99.90;;;;;;4918223;29;20502;-72
2021/09/28 08:04:57;;;;;;;6.03;2.77;;;14.70;99.90;;;;;;4919166;29;20470;-72
2021/09/28 08:07:23;;;;;;;5.03;2.30;;;14.80;99.90;;;;;;4918961;29;20470;-72
2021/09/28 08:09:50;;;;;;;2.07;2.07;;;14.80;99.90;;;;;;4919137;29;20505;-72
2021/09/28 08:12:17;;;;;;;1.90;1.80;;;14.90;99.90;;;;;;4935222;29;20564;-73
2021/09/28 08:14:44;;;;;;;2.17;2.17;;;14.90;99.90;;;;;;4937552;29;20881;-74
2021/09/28 08:17:10;;;;;;;3.20;2.43;;;15.00;99.90;;;;;;4937182;29;20469;-72
2021/09/28 08:19:40;;;;;;;2.70;1.77;;;15.10;99.90;;;;;;4939427;29;20469;-73
2021/09/28 08:22:09;;;;;;;2.10;2.00;;;15.10;99.90;;;;;;4940135;29;20512;-73
2021/09/28 08:24:41;;;;;;;2.67;2.43;;;15.20;99.90;;;;;;4939399;28;20568;-72
2021/09/28 08:29:52;;;;;;;2.20;2.10;;;15.30;99.90;;;;;;4938398;29;20488;-72
2021/09/28 08:32:19;;;;;;;2.83;1.40;;;15.30;99.90;;;;;;4937119;29;20485;-72
2021/09/28 08:34:47;;;;;;;3.80;1.53;;;15.30;99.90;;;;;;4938219;29;20508;-72
2021/09/28 08:37:14;;;;;;;2.27;1.07;;;15.30;99.90;;;;;;4937759;29;20532;-73
2021/09/28 08:39:41;;;;;;;2.30;1.60;;;15.40;99.90;;;;;;4937884;29;20469;-72
2021/09/28 08:42:08;;;;;;;6.60;1.77;;;15.40;99.90;;;;;;4933070;29;20490;-73
2021/09/28 08:44:35;;;;;;;1.30;1.30;;;15.50;99.90;;;;;;4918568;29;20872;-72
2021/09/28 08:47:01;;;;;;;2.00;1.70;;;15.50;99.90;;;;;;4917852;29;20470;-72
2021/09/28 08:49:28;;;;;;;3.40;1.57;;;15.50;99.90;;;;;;4919137;29;20470;-72
2021/09/28 08:51:57;;;;;;;1.77;1.60;;;15.60;99.90;;;;;;4918501;29;20557;-72
2021/09/28 08:54:23;;;;;;;2.00;1.30;;;15.60;99.90;;;;;;4918892;29;20467;-72
2021/09/28 08:56:50;;;;;;;1.90;1.10;;;15.70;99.90;;;;;;4917570;29;20537;-72
2021/09/28 08:59:18;;;;;;;2.50;1.60;;;15.70;99.90;;;;;;4918722;29;20541;-71
2021/09/28 09:01:56;;;;;;;1.90;1.60;;;15.80;99.90;;;;;;4916987;29;20491;-72
2021/09/28 09:04:25;;;;;;;2.33;1.30;;;15.90;99.90;;;;;;4918048;29;20468;-73
2021/09/28 09:06:54;;;;;;;1.40;1.30;;;15.90;99.90;;;;;;4918062;29;20487;-72
2021/09/28 09:09:23;;;;;;;1.30;1.20;;;16.00;99.90;;;;;;4918350;29;20878;-72
2021/09/28 09:11:52;;;;;;;1.87;1.77;;;16.10;99.90;;;;;;4917300;29;20581;-72
2021/09/28 09:14:20;;;;;;;2.00;1.07;;;16.10;99.90;;;;;;4917846;29;20478;-72
2021/09/28 09:16:49;;;;;;;3.17;1.10;;;16.20;99.90;;;;;;4916958;29;20498;-72
2021/09/28 09:19:17;;;;;;;1.50;1.40;;;16.20;99.90;;;;;;4918039;29;20887;-73
2021/09/28 09:21:47;;;;;;;3.33;1.90;;;16.40;99.90;;;;;;4917581;29;20514;-73
2021/09/28 09:24:43;;;;;;;2.43;1.50;;;16.50;99.90;;;;;;4917766;29;20541;-73
2021/09/28 09:27:11;;;;;;;1.30;1.20;;;16.60;99.90;;;;;;4917646;29;20841;-74
2021/09/28 09:29:38;;;;;;;1.57;1.13;;;16.70;99.90;;;;;;4917949;29;20474;-73
2021/09/28 09:32:05;;;;;;;3.03;0.90;;;16.90;99.90;;;;;;4916624;29;20677;-73
2021/09/28 09:34:32;;;;;;;2.10;1.10;;;16.90;99.90;;;;;;4917589;29;20530;-74
2021/09/28 09:37:02;;;;;;;3.90;1.17;;;16.90;99.90;;;;;;4917396;29;20475;-74
2021/09/28 09:39:46;;;;;;;3.33;1.53;;;17.10;99.90;;;;;;4918018;29;21030;-74
2021/09/28 09:42:13;;;;;;;3.90;1.40;;;17.20;99.90;;;;;;4917682;29;20573;-74
2021/09/28 09:44:42;;;;;;;3.00;1.37;;;17.30;99.90;;;;;;4918399;29;20490;-75
2021/09/28 09:47:25;;;;;;;3.20;0.90;;;17.30;99.90;;;;;;4916839;29;20513;-74
2021/09/28 09:49:52;;;;;;;2.23;1.13;;;17.40;99.90;;;;;;4917757;29;20466;-75
2021/09/28 09:52:19;;;;;;;2.43;1.13;;;17.40;99.90;;;;;;4916809;29;20911;-74
2021/09/28 09:54:47;;;;;;;2.83;1.30;;;17.50;99.90;;;;;;4917438;29;20470;-73
2021/09/28 09:57:14;;;;;;;1.10;1.00;;;17.60;99.90;;;;;;4916380;29;20542;-73
2021/09/28 09:59:41;;;;;;;2.23;1.17;;;17.70;99.90;;;;;;4918100;29;20600;-73
2021/09/28 10:02:09;;;;;;;2.00;0.90;;;17.80;99.90;;;;;;4915809;29;20906;-73
2021/09/28 10:04:37;;;;;;;1.33;1.10;;;17.70;99.90;;;;;;4917374;29;20545;-72
2021/09/28 10:07:05;;;;;;;1.40;1.00;;;17.70;99.90;;;;;;4916848;29;20474;-72
2021/09/28 10:09:34;;;;;;;1.23;0.83;;;17.80;99.90;;;;;;4917214;29;20960;-72
2021/09/28 10:12:05;;;;;;;3.23;1.03;;;17.90;99.90;;;;;;4916818;29;20565;-72
2021/09/28 10:14:35;;;;;;;3.80;0.90;;;17.90;99.90;;;;;;4917361;29;20522;-72
2021/09/28 10:17:02;;;;;;;0.93;0.93;;;18.10;99.90;;;;;;4915790;29;20553;-72
2021/09/28 10:19:46;;;;;;;2.73;0.77;;;18.20;99.90;;;;;;4916948;29;20805;-73
2021/09/28 10:22:48;;;;;;;0.70;0.70;;;18.20;99.90;;;;;;4915706;29;20493;-73
2021/09/28 10:25:33;;;;;;;1.60;0.50;;;18.30;99.90;;;;;;4907106;29;20556;-73
2021/09/28 10:28:39;;;;;;;1.13;0.77;;;18.40;99.90;;;;;;4916296;29;20966;-73
2021/09/28 10:31:12;;;;;;;0.60;0.60;;;18.50;99.90;;;;;;4916720;29;20584;-72
2021/09/28 10:33:40;;;;;;;1.20;1.10;;;18.60;99.90;;;;;;4915318;29;20554;-73
2021/09/28 10:36:11;;;;;;;0.90;0.90;;;18.70;99.90;;;;;;4916474;29;20931;-73
2021/09/28 10:38:43;;;;;;;1.30;0.70;;;18.80;99.90;;;;;;4916037;29;20506;-73
2021/09/28 10:41:31;;;;;;;0.60;0.60;;;18.90;99.90;;;;;;4916631;29;20534;-73
2021/09/28 10:44:43;;;;;;;0.63;0.60;;;19.00;99.90;;;;;;4916121;29;20668;-72
2021/09/28 10:47:46;;;;;;;1.30;0.53;;;19.00;99.90;;;;;;4915793;29;20478;-73
2021/09/28 10:50:34;;;;;;;2.77;0.80;;;19.00;99.90;;;;;;4916313;29;20542;-72
2021/09/28 10:53:03;;;;;;;0.67;0.53;;;19.00;99.90;;;;;;4911358;29;20502;-73
2021/09/28 10:55:38;;;;;;;3.20;0.67;;;19.10;99.90;;;;;;4917046;29;20470;-73
2021/09/28 10:58:11;;;;;;;1.70;0.60;;;19.10;99.90;;;;;;4916364;29;20529;-73
2021/09/28 11:01:09;;;;;;;0.93;0.80;;;19.10;99.90;;;;;;4923664;29;20580;-73
2021/09/28 11:03:58;;;;;;;1.60;0.80;;;19.10;99.90;;;;;;4911883;29;20954;-73
2021/09/28 11:06:46;;;;;;;0.63;0.63;;;19.00;99.90;;;;;;4935407;29;20474;-73
2021/09/28 11:09:13;;;;;;;0.60;0.60;;;18.90;99.90;;;;;;4935578;29;20466;-73
2021/09/28 11:11:40;;;;;;;0.80;0.33;;;19.00;99.90;;;;;;4934533;28;20830;-74
2021/09/28 11:14:10;;;;;;;2.73;0.60;;;19.00;99.90;;;;;;4934919;29;20548;-73
2021/09/28 11:16:41;;;;;;;1.30;0.60;;;19.00;99.90;;;;;;4934949;29;20525;-75
2021/09/28 11:19:10;;;;;;;0.80;0.80;;;19.10;99.90;;;;;;4935326;29;20469;-73
2021/09/28 11:21:40;;;;;;;0.90;0.70;;;19.10;99.90;;;;;;4934941;29;20982;-74
2021/09/28 11:24:07;;;;;;;0.80;0.47;;;19.10;99.90;;;;;;4934861;29;20474;-73
2021/09/28 11:26:38;;;;;;;0.93;0.80;;;19.10;99.90;;;;;;4935007;29;20473;-73
2021/09/28 11:29:05;;;;;;;2.33;0.80;;;19.20;99.90;;;;;;4934750;29;20962;-73
2021/09/28 11:31:33;;;;;;;1.33;0.90;;;19.20;99.90;;;;;;4930036;28;20510;-73
2021/09/28 11:34:00;;;;;;;0.90;0.90;;;19.30;99.90;;;;;;4916434;29;20858;-72
2021/09/28 11:36:33;;;;;;;0.57;0.57;;;19.30;99.90;;;;;;4919786;29;20934;-73
2021/09/28 11:39:00;;;;;;;0.80;0.80;;;19.30;99.90;;;;;;4920378;29;20529;-72
2021/09/28 11:41:27;;;;;;;0.63;0.63;;;19.30;99.90;;;;;;4919782;29;20549;-72
2021/09/28 11:43:55;;;;;;;3.10;1.00;;;19.30;99.90;;;;;;4919423;29;20649;-69
2021/09/28 11:46:24;;;;;;;4.23;1.13;;;19.30;99.90;;;;;;4919548;29;20541;-72
2021/09/28 11:48:56;;;;;;;1.60;0.70;;;19.30;99.90;;;;;;4918416;29;20975;-72
2021/09/28 11:51:25;;;;;;;0.60;0.60;;;19.30;99.90;;;;;;4919630;29;20505;-73
2021/09/28 11:53:55;;;;;;;3.43;0.87;;;19.40;99.90;;;;;;4919025;29;20485;-73
2021/09/28 11:56:23;;;;;;;0.43;0.43;;;19.40;99.90;;;;;;4919452;29;20553;-73
2021/09/28 11:58:52;;;;;;;0.40;0.40;;;19.50;99.90;;;;;;4919019;29;20530;-73
2021/09/28 12:01:20;;;;;;;1.40;0.70;;;19.50;99.90;;;;;;4919347;29;20884;-73
2021/09/28 12:04:12;;;;;;;0.60;0.60;;;19.50;99.90;;;;;;4917935;29;20482;-72
2021/09/28 12:06:59;;;;;;;0.70;0.60;;;19.40;99.90;;;;;;4919360;29;20482;-73
2021/09/28 12:09:47;;;;;;;0.60;0.60;;;19.30;99.90;;;;;;4919320;29;20951;-73
2021/09/28 12:12:15;;;;;;;1.47;0.70;;;19.20;99.90;;;;;;4918349;29;20537;-72
2021/09/28 12:14:44;;;;;;;1.53;0.57;;;19.10;99.90;;;;;;4919096;29;20543;-72
2021/09/28 12:17:12;;;;;;;2.57;0.93;;;19.20;99.90;;;;;;4918175;29;20470;-73
2021/09/28 12:19:40;;;;;;;0.77;0.60;;;19.20;99.90;;;;;;4919127;29;20499;-72
2021/09/28 12:22:06;;;;;;;0.67;0.50;;;19.20;99.90;;;;;;4918576;29;20565;-73
2021/09/28 12:24:46;;;;;;;1.70;0.60;;;19.10;99.90;;;;;;4919046;29;20482;-72
2021/09/28 12:27:14;;;;;;;1.00;0.90;;;19.20;99.90;;;;;;4918983;29;20473;-72
2021/09/28 12:29:44;;;;;;;1.03;0.80;;;19.10;99.90;;;;;;4919123;29;20494;-73
2021/09/28 12:32:19;;;;;;;1.43;0.83;;;19.10;99.90;;;;;;4927036;29;20489;-72
2021/09/28 12:34:50;;;;;;;0.60;0.60;;;19.20;99.90;;;;;;4937231;28;20982;-73
2021/09/28 12:37:17;;;;;;;3.70;0.80;;;19.20;99.90;;;;;;4937916;29;20485;-72
2021/09/28 12:40:01;;;;;;;0.60;0.40;;;19.20;99.90;;;;;;4937833;29;20457;-72
2021/09/28 12:42:28;;;;;;;1.77;0.80;;;19.20;99.90;;;;;;4937344;29;20533;-73
2021/09/28 12:44:59;;;;;;;0.80;0.80;;;19.20;99.90;;;;;;4937377;29;20470;-73
2021/09/28 12:47:36;;;;;;;1.30;1.10;;;19.10;99.90;;;;;;4935990;29;20465;-73
2021/09/28 12:50:25;;;;;;;0.40;0.40;;;19.00;99.90;;;;;;4937573;29;20560;-74
2021/09/28 12:52:56;;;;;;;0.70;0.50;;;19.00;99.90;;;;;;4937068;29;20489;-73
2021/09/28 12:55:25;;;;;;;0.67;0.50;;;18.90;99.90;;;;;;4937352;29;20536;-73
2021/09/28 12:57:53;;;;;;;0.73;0.53;;;18.80;99.90;;;;;;4936928;29;20469;-73
2021/09/28 13:00:20;;;;;;;0.63;0.63;;;18.80;99.90;;;;;;4929434;29;20489;-73
2021/09/28 13:02:48;;;;;;;0.70;0.60;;;18.80;99.90;;;;;;4917273;29;20462;-74
2021/09/28 13:05:20;;;;;;;0.77;0.50;;;18.80;99.90;;;;;;4918312;29;20533;-74
2021/09/28 13:07:48;;;;;;;1.13;0.60;;;18.80;99.90;;;;;;4917737;29;20952;-75
2021/09/28 13:10:14;;;;;;;0.60;0.60;;;18.90;99.90;;;;;;4917982;29;20498;-73
2021/09/28 13:12:43;;;;;;;0.40;0.40;;;19.00;99.90;;;;;;4917744;29;20784;-74
2021/09/28 13:15:12;;;;;;;1.40;1.07;;;19.10;99.90;;;;;;4918083;29;20949;-74
2021/09/28 13:17:39;;;;;;;0.63;0.63;;;19.20;99.90;;;;;;4916776;29;21023;-74
2021/09/28 13:20:09;;;;;;;0.87;0.87;;;19.20;99.90;;;;;;4918123;29;20530;-74
2021/09/28 13:22:36;;;;;;;2.37;0.70;;;19.20;99.90;;;;;;4917876;29;20834;-74
2021/09/28 13:25:04;;;;;;;2.83;0.97;;;19.20;99.90;;;;;;4917771;29;20977;-74
2021/09/28 13:27:31;;;;;;;0.63;0.60;;;19.20;99.90;;;;;;4917765;29;20891;-74
2021/09/28 13:29:59;;;;;;;0.67;0.67;;;19.30;99.90;;;;;;4917971;29;20900;-74
2021/09/28 13:32:26;;;;;;;2.93;0.93;;;19.30;99.90;;;;;;4916394;29;20486;-74
2021/09/28 13:34:54;;;;;;;2.67;0.80;;;19.40;99.90;;;;;;4917733;29;20580;-74
2021/09/28 13:37:23;;;;;;;0.90;0.90;;;19.50;99.90;;;;;;4917240;29;20995;-73
2021/09/28 13:39:49;;;;;;;0.50;0.50;;;19.50;99.90;;;;;;4916041;29;20486;-74
2021/09/28 13:42:16;;;;;;;2.43;0.60;;;19.50;99.90;;;;;;4917415;29;20482;-74
2021/09/28 13:44:43;;;;;;;0.53;0.50;;;19.60;99.90;;;;;;4917504;29;20936;-74
2021/09/28 13:47:11;;;;;;;0.50;0.50;;;19.60;99.90;;;;;;4916538;29;20882;-74
2021/09/28 13:49:37;;;;;;;1.10;0.70;;;19.60;99.90;;;;;;4917397;29;20493;-74
2021/09/28 13:52:06;;;;;;;4.13;0.70;;;19.60;99.90;;;;;;4916655;29;20610;-73
2021/09/28 13:54:33;;;;;;;0.93;0.50;;;19.60;99.90;;;;;;4917366;29;20466;-74
2021/09/28 13:56:59;;;;;;;1.40;0.60;;;19.60;99.90;;;;;;4917158;29;20471;-73
2021/09/28 13:59:26;;;;;;;0.83;0.70;;;19.70;99.90;;;;;;4917154;29;20814;-73
2021/09/28 14:01:53;;;;;;;0.50;0.50;;;19.70;99.90;;;;;;4916024;29;20558;-74
2021/09/28 14:04:21;;;;;;;0.50;0.50;;;19.70;99.90;;;;;;4916815;29;20506;-73
2021/09/28 14:06:47;;;;;;;0.83;0.83;;;19.60;99.90;;;;;;4916980;29;20463;-73
2021/09/28 14:09:14;;;;;;;1.13;0.60;;;19.60;99.90;;;;;;4915185;29;20613;-73
2021/09/28 14:11:41;;;;;;;1.50;0.50;;;19.50;99.90;;;;;;4916731;29;20887;-73
2021/09/28 14:14:07;;;;;;;0.60;0.60;;;19.50;99.90;;;;;;4917053;29;20537;-73
2021/09/28 14:16:34;;;;;;;1.77;0.67;;;19.50;99.90;;;;;;4916849;29;20482;-73
2021/09/28 14:19:01;;;;;;;1.50;1.20;;;19.40;99.90;;;;;;4916243;29;20470;-73
2021/09/28 14:21:29;;;;;;;0.70;0.60;;;19.40;99.90;;;;;;4916935;29;20553;-74
2021/09/28 14:23:55;;;;;;;0.60;0.60;;;19.40;99.90;;;;;;4916430;29;20470;-73
2021/09/28 14:26:22;;;;;;;0.70;0.70;;;19.40;99.90;;;;;;4917046;29;20525;-73
2021/09/28 14:28:49;;;;;;;0.70;0.70;;;19.40;99.90;;;;;;4916588;29;20462;-73
2021/09/28 14:31:16;;;;;;;1.47;0.77;;;19.40;99.90;;;;;;4916584;29;20554;-73
2021/09/28 14:33:42;;;;;;;0.83;0.50;;;19.40;99.90;;;;;;4915317;29;20573;-73
2021/09/28 14:36:09;;;;;;;0.70;0.70;;;19.40;99.90;;;;;;4916639;29;20530;-73
2021/09/28 14:38:38;;;;;;;0.93;0.93;;;19.40;99.90;;;;;;4916510;29;20470;-73
2021/09/28 14:41:04;;;;;;;0.60;0.60;;;19.30;99.90;;;;;;4916233;29;20506;-73
2021/09/28 14:43:31;;;;;;;3.00;1.00;;;19.30;99.90;;;;;;4916130;29;20826;-73
2021/09/28 14:45:58;;;;;;;1.63;1.00;;;19.40;99.90;;;;;;4916720;29;20497;-73
2021/09/28 14:48:25;;;;;;;1.17;0.60;;;19.30;99.90;;;;;;4915456;29;20474;-73
2021/09/28 14:50:52;;;;;;;1.30;0.80;;;19.30;99.90;;;;;;4916301;29;20486;-72
2021/09/28 14:53:18;;;;;;;0.83;0.73;;;19.20;99.90;;;;;;4915479;29;20916;-72
2021/09/28 14:55:46;;;;;;;0.87;0.87;;;19.10;99.90;;;;;;4916627;29;20876;-72
2021/09/28 14:58:13;;;;;;;1.17;0.80;;;19.00;99.90;;;;;;4916119;29;20471;-72
2021/09/28 15:00:40;;;;;;;1.13;0.80;;;18.90;99.90;;;;;;4915832;29;20653;-72
2021/09/28 15:03:06;;;;;;;0.90;0.83;;;18.80;99.90;;;;;;4915356;29;20471;-72
2021/09/28 15:05:33;;;;;;;1.43;0.90;;;18.80;99.90;;;;;;4916497;29;20530;-72
2021/09/28 15:08:00;;;;;;;1.33;1.07;;;18.80;99.90;;;;;;4916010;29;20927;-72
2021/09/28 15:10:28;;;;;;;3.20;0.77;;;18.70;99.90;;;;;;4916409;29;20978;-73
2021/09/28 15:12:56;;;;;;;1.33;0.90;;;18.70;99.90;;;;;;4916500;29;20805;-72
2021/09/28 15:15:23;;;;;;;0.80;0.80;;;18.60;99.90;;;;;;4916003;29;20537;-72
2021/09/28 15:17:50;;;;;;;1.57;1.10;;;18.60;99.90;;;;;;4915547;29;21018;-72
2021/09/28 15:20:18;;;;;;;2.53;0.87;;;18.50;99.90;;;;;;4916532;29;20471;-72
2021/09/28 15:22:45;;;;;;;0.77;0.60;;;18.40;99.90;;;;;;4917848;29;20466;-72
2021/09/28 15:25:12;;;;;;;1.90;1.00;;;18.40;99.90;;;;;;4917208;29;20541;-72
2021/09/28 15:27:40;;;;;;;0.97;0.97;;;18.30;99.90;;;;;;4915783;29;20534;-72
2021/09/28 15:30:12;;;;;;;1.27;1.17;;;18.30;99.90;;;;;;4916449;29;20506;-73
2021/09/28 15:32:40;;;;;;;1.17;1.00;;;18.20;99.90;;;;;;4915605;29;20597;-74
2021/09/28 15:35:08;;;;;;;0.70;0.70;;;18.20;99.90;;;;;;4916210;29;20526;-73
2021/09/28 15:37:35;;;;;;;1.23;0.90;;;18.20;99.90;;;;;;4915583;29;20494;-73
2021/09/28 15:40:03;;;;;;;3.60;0.73;;;18.20;99.90;;;;;;4916159;29;20466;-73
2021/09/28 15:42:30;;;;;;;1.70;1.60;;;18.20;99.90;;;;;;4915831;29;20608;-73
2021/09/28 15:44:58;;;;;;;1.30;1.20;;;18.10;99.90;;;;;;4917045;29;20498;-73
2021/09/28 15:47:26;;;;;;;8.10;1.40;;;18.10;99.90;;;;;;4914121;29;20620;-72
2021/09/28 15:49:53;;;;;;;0.80;0.80;;;18.10;99.90;;;;;;4915900;29;20879;-73
2021/09/28 15:52:19;;;;;;;0.80;0.80;;;18.10;99.90;;;;;;4915377;29;20490;-72
2021/09/28 15:54:47;;;;;;;1.03;1.03;;;18.10;99.90;;;;;;4915883;29;20498;-73
2021/09/28 15:57:13;;;;;;;1.33;1.13;;;18.10;99.90;;;;;;4916024;29;20466;-72
2021/09/28 15:59:40;;;;;;;1.20;1.10;;;18.10;99.90;;;;;;4915862;29;20851;-72
2021/09/28 16:02:07;;;;;;;1.70;1.30;;;18.10;99.90;;;;;;4914359;29;20498;-71
2021/09/28 16:04:35;;;;;;;1.47;1.10;;;18.00;99.90;;;;;;4915674;29;20470;-71
2021/09/28 16:07:02;;;;;;;1.67;1.67;;;18.00;99.90;;;;;;4915370;29;20470;-71
2021/09/28 16:09:29;;;;;;;1.00;1.00;;;18.00;99.90;;;;;;4915298;29;20533;-72
2021/09/28 16:11:55;;;;;;;1.10;1.00;;;17.90;99.90;;;;;;4915217;29;20557;-72
2021/09/28 16:14:22;;;;;;;1.50;1.50;;;17.90;99.90;;;;;;4915224;29;20463;-72
2021/09/28 16:16:49;;;;;;;2.30;1.40;;;17.80;99.90;;;;;;4914492;29;20764;-72
2021/09/28 16:19:16;;;;;;;1.03;1.03;;;17.80;99.90;;;;;;4915454;29;20485;-72
2021/09/28 16:21:44;;;;;;;2.40;1.60;;;17.80;99.90;;;;;;4917105;29;20478;-72
2021/09/28 16:24:10;;;;;;;4.33;1.33;;;17.70;99.90;;;;;;4918751;29;21014;-72
2021/09/28 16:26:37;;;;;;;1.53;1.43;;;17.70;99.90;;;;;;4918444;29;20923;-72
2021/09/28 16:29:04;;;;;;;1.70;1.70;;;17.60;99.90;;;;;;4918888;29;20466;-72
2021/09/28 16:31:31;;;;;;;1.20;1.17;;;17.60;99.90;;;;;;4919128;29;20486;-72
2021/09/28 16:33:58;;;;;;;2.20;1.60;;;17.50;99.90;;;;;;4918444;29;20497;-72
2021/09/28 16:36:24;;;;;;;1.70;1.60;;;17.50;99.90;;;;;;4918456;29;20499;-72
2021/09/28 16:38:53;;;;;;;4.43;1.57;;;17.40;99.90;;;;;;4918028;29;20469;-71
2021/09/28 16:41:21;;;;;;;1.33;1.30;;;17.40;99.90;;;;;;4918235;29;20498;-72
2021/09/28 16:43:49;;;;;;;2.20;1.53;;;17.30;99.90;;;;;;4917975;29;20485;-72
2021/09/28 16:46:17;;;;;;;1.20;1.20;;;17.30;99.90;;;;;;4918584;29;20505;-72
2021/09/28 16:48:46;;;;;;;1.10;1.10;;;17.20;99.90;;;;;;4917193;29;20544;-71
2021/09/28 16:51:16;;;;;;;1.20;1.20;;;17.10;99.90;;;;;;4918040;29;20898;-72
2021/09/28 16:53:43;;;;;;;1.70;1.60;;;17.00;99.90;;;;;;4918033;29;20486;-71
2021/09/28 16:56:12;;;;;;;2.07;1.67;;;17.00;99.90;;;;;;4918319;29;20467;-71